地図

経路データ

SID SEASON NUMBER BASIN SUBBASIN NAME ISO_TIME NATURE LAT LON WMO_WIND WMO_PRES WMO_AGENCY TRACK_TYPE DIST2LAND LANDFALL IFLAG USA_AGENCY USA_ATCF_ID USA_LAT USA_LON USA_RECORD USA_STATUS USA_WIND USA_PRES USA_SSHS USA_R34_NE USA_R34_SE USA_R34_SW USA_R34_NW USA_R50_NE USA_R50_SE USA_R50_SW USA_R50_NW USA_R64_NE USA_R64_SE USA_R64_SW USA_R64_NW USA_POCI USA_ROCI USA_RMW USA_EYE TOKYO_LAT TOKYO_LON TOKYO_GRADE TOKYO_WIND TOKYO_PRES TOKYO_R50_DIR TOKYO_R50_LONG TOKYO_R50_SHORT TOKYO_R30_DIR TOKYO_R30_LONG TOKYO_R30_SHORT TOKYO_LAND CMA_LAT CMA_LON CMA_CAT CMA_WIND CMA_PRES HKO_LAT HKO_LON HKO_CAT HKO_WIND HKO_PRES NEWDELHI_LAT NEWDELHI_LON NEWDELHI_GRADE NEWDELHI_WIND NEWDELHI_PRES NEWDELHI_CI NEWDELHI_DP NEWDELHI_POCI REUNION_LAT REUNION_LON REUNION_TYPE REUNION_WIND REUNION_PRES REUNION_TNUM REUNION_CI REUNION_RMW REUNION_R34_NE REUNION_R34_SE REUNION_R34_SW REUNION_R34_NW REUNION_R50_NE REUNION_R50_SE REUNION_R50_SW REUNION_R50_NW REUNION_R64_NE REUNION_R64_SE REUNION_R64_SW REUNION_R64_NW BOM_LAT BOM_LON BOM_TYPE BOM_WIND BOM_PRES BOM_TNUM BOM_CI BOM_RMW BOM_R34_NE BOM_R34_SE BOM_R34_SW BOM_R34_NW BOM_R50_NE BOM_R50_SE BOM_R50_SW BOM_R50_NW BOM_R64_NE BOM_R64_SE BOM_R64_SW BOM_R64_NW BOM_ROCI BOM_POCI BOM_EYE BOM_POS_METHOD BOM_PRES_METHOD NADI_LAT NADI_LON NADI_CAT NADI_WIND NADI_PRES WELLINGTON_LAT WELLINGTON_LON WELLINGTON_WIND WELLINGTON_PRES DS824_LAT DS824_LON DS824_STAGE DS824_WIND DS824_PRES TD9636_LAT TD9636_LON TD9636_STAGE TD9636_WIND TD9636_PRES TD9635_LAT TD9635_LON TD9635_WIND TD9635_PRES TD9635_ROCI NEUMANN_LAT NEUMANN_LON NEUMANN_CLASS NEUMANN_WIND NEUMANN_PRES MLC_LAT MLC_LON MLC_CLASS MLC_WIND MLC_PRES USA_GUST BOM_GUST BOM_GUST_PER REUNION_GUST REUNION_GUST_PER USA_SEAHGT USA_SEARAD_NE USA_SEARAD_SE USA_SEARAD_SW USA_SEARAD_NW STORM_SPEED STORM_DIR
1956041S18041 1956 17 SI MM NOT_NAMED 1956-02-10 06:00:00 TS -17.5250 41.0750 reunion main 177 177 O____O___OO___ jtwc_sh SH201956 -17.9000 40.8000 -1 -16.4000 41.9000 99 9.90000 -17.9000 40.8000 TC 25 -17.9000 40.8000 7 6 96
1956041S18041 1956 17 SI MM NOT_NAMED 1956-02-10 09:00:00 TS -17.5552 41.3703 main 209 209 P____P___PP___ SH201956 -17.9401 41.1075 -1 -16.3558 42.1696 99 -17.9401 41.1075 TC 25 -17.9848 41.0964 7 6 98
1956041S18041 1956 17 SI MM NOT_NAMED 1956-02-10 12:00:00 TS -17.5991 41.6542 main 233 212 O____P___OP___ jtwc_sh SH201956 -18.0000 41.4000 -1 -16.3310 42.4323 99 -18.0000 41.4000 TC 25 -18.0654 41.3845 7 5 102
1956041S18041 1956 17 SI MM NOT_NAMED 1956-02-10 15:00:00 TS -17.6672 41.9167 main 213 192 P____P___PP___ SH201956 -18.0925 41.6650 -1 -16.3454 42.6815 99 -18.0925 41.6650 TC 25 -18.1384 41.6552 7 5 108
1956041S18041 1956 17 SI MM NOT_NAMED 1956-02-10 18:00:00 TS -17.7547 42.1527 main 183 162 O____P___OO___ jtwc_sh SH201956 -18.2000 41.9000 -1 -16.4188 42.9106 99 -18.2000 41.9000 TC 25 -18.2000 41.9000 1 5 113
1956041S18041 1956 17 SI MM NOT_NAMED 1956-02-10 21:00:00 TS -17.8490 42.3640 main 162 154 P____P___PP___ SH201956 -18.2850 42.1151 -1 -16.5710 43.1135 99 -18.2850 42.1151 TC 25 -18.2552 42.1123 1 4 122
1956041S18041 1956 17 SI MM NOT_NAMED 1956-02-11 00:00:00 TS -17.9911 42.5448 main 158 137 O____P___OP___ jtwc_sh SH201956 -18.4000 42.3000 -1 -16.8219 43.2836 99 -18.4000 42.3000 TC 25 -18.3424 42.2957 1 5 137
1956041S18041 1956 17 SI MM NOT_NAMED 1956-02-11 03:00:00 TS -18.1912 42.6965 main 137 126 P____P___PP___ SH201956 -18.5325 42.4577 -1 -17.1915 43.4146 99 -18.5325 42.4577 TC 25 -18.5084 42.4562 1 6 154
1956041S18041 1956 17 SI MM NOT_NAMED 1956-02-11 06:00:00 TS -18.5250 42.8250 reunion main 127 118 O____O___OO___ jtwc_sh SH201956 -18.8000 42.6000 -1 -17.7000 43.5000 99 9.90000 -18.8000 42.6000 TC 25 -18.8000 42.6000 1 9 164
1956041S18041 1956 17 SI MM NOT_NAMED 1956-02-11 09:00:00 TS -19.0513 42.9533 main 126 126 P____P___PP___ SH201956 -19.2825 42.7574 -1 -18.3575 43.5354 99 -19.2825 42.7574 TC 25 -19.2829 42.7629 1 12 169
1956041S18041 1956 17 SI MM NOT_NAMED 1956-02-11 12:00:00 TS -19.7053 43.0588 main 133 94 O____P___OP___ jtwc_sh SH201956 -19.9000 42.9000 -1 -19.1337 43.5265 99 -19.9000 42.9000 TC 25 -19.8876 42.9088 1 14 173
1956041S18041 1956 17 SI MM NOT_NAMED 1956-02-11 15:00:00 TS -20.4129 43.1341 main 94 45 P____P___PP___ SH201956 -20.5575 43.0150 -1 -19.9882 43.4811 99 -20.5575 43.0150 TC 25 -20.5486 43.0254 1 14 176
1956041S18041 1956 17 SI MM NOT_NAMED 1956-02-11 18:00:00 TS -21.1200 43.1769 main 45 23 O____P___OO___ jtwc_sh SH201956 -21.2000 43.1000 -1 -20.8799 43.4075 99 -21.2000 43.1000 TC 25 -21.2000 43.1000 1 13 177
1956041S18041 1956 17 SI MM NOT_NAMED 1956-02-11 21:00:00 TS -21.7277 43.2236 main 23 0 P____P___PP___ SH201956 -21.7150 43.1799 -1 -21.7679 43.3138 99 -21.7150 43.1799 TC 25 -21.7131 43.2208 1 12 178
1956041S18041 1956 17 SI MM NOT_NAMED 1956-02-12 00:00:00 TS -22.3054 43.2234 main 0 0 O____P___OP___ jtwc_sh SH201956 -22.2000 43.2000 -1 -22.6111 43.2087 99 -22.2000 43.2000 TC 25 -22.2107 43.2847 1 12 182
1956041S18041 1956 17 SI MM NOT_NAMED 1956-02-12 03:00:00 TS -22.8839 43.1851 main 23 23 P____P___PP___ SH201956 -22.7196 43.2039 -1 -23.3686 43.1010 99 -22.7196 43.2039 TC 25 -22.7280 43.2316 1 12 190
1956041S18041 1956 17 SI MM NOT_NAMED 1956-02-12 06:00:00 TS -23.4750 43.0000 reunion main 65 65 O____O___OO___ jtwc_sh SH201956 -23.3000 43.0000 -1 -24.0000 43.0000 99 9.90000 -23.3000 43.0000 TC 25 -23.3000 43.0000 1 14 207
1956041S18041 1956 17 SI MM NOT_NAMED 1956-02-12 09:00:00 TS -24.0960 42.5219 main 120 120 P____P___PP___ SH201956 -23.9704 42.4404 -1 -24.4751 42.9132 99 -23.9704 42.4404 TC 25 -23.9679 42.2934 1 16 218
1956041S18041 1956 17 SI MM NOT_NAMED 1956-02-12 12:00:00 TS -24.7233 41.9196 main 192 192 O____P___OP___ jtwc_sh SH201956 -24.7000 41.7000 -1 -24.8050 42.8409 99 -24.7000 41.7000 TC 25 -24.6883 41.4375 1 17 222
1956041S18041 1956 17 SI MM NOT_NAMED 1956-02-12 15:00:00 TS -25.3338 41.2931 main 263 263 P____P___PP___ SH201956 -25.4433 40.8525 -1 -25.0105 42.7811 99 -25.4433 40.8525 TC 25 -25.4382 40.6862 1 15 217
1956041S18041 1956 17 SI MM NOT_NAMED 1956-02-12 18:00:00 TS -25.9281 40.9080 main 325 325 O____P___OO___ jtwc_sh SH201956 -26.2000 40.3000 -1 -25.1125 42.7319 99 -26.2000 40.3000 TC 25 -26.2000 40.3000 1 12 194
1956041S18041 1956 17 SI MM NOT_NAMED 1956-02-12 21:00:00 TS -26.4972 40.9782 main 343 342 P____P___PP___ SH201956 -26.9481 40.3725 -1 -25.1318 42.6914 99 -26.9481 40.3725 TC 25 -26.9607 40.4764 1 12 157
1956041S18041 1956 17 SI MM NOT_NAMED 1956-02-13 00:00:00 TS -27.0514 41.4485 main 349 334 O____P___OP___ jtwc_sh SH201956 -27.7000 41.0000 -1 -25.0891 42.6573 99 -27.7000 41.0000 TC 25 -27.7167 41.1369 1 16 135
1956041S18041 1956 17 SI MM NOT_NAMED 1956-02-13 03:00:00 TS -27.5940 42.2087 main 337 327 P____P___PP___ SH201956 -28.4535 42.0386 -1 -25.0049 42.6275 99 -28.4535 42.0386 TC 25 -28.4642 42.1302 1 18 126
1956041S18041 1956 17 SI MM NOT_NAMED 1956-02-13 06:00:00 TS -28.1250 43.1250 reunion main 338 O____O___OO___ jtwc_sh SH201956 -29.2000 43.3000 -1 -24.9000 42.6000 99 9.90000 -29.2000 43.3000 TC 25 -29.2000 43.3000 1 19 123

IBTrACS Databaseについて

本データベースは、米国NOAAが公開する1842年以降の世界の熱帯低気圧のベストトラックデータアーカイブInternational Best Track Archive for Climate Stewardship (IBTrACS)を、ウェブで閲覧しやすい形式に変換したものです。

最終更新日:2021-11-26